Time;durP1;ratioP1;P1;durP2;ratioP2;P2;SDS_P1;SDS_P2;PMS_P1;PMS_P2;Temp;Humidity;BMP_temperature;BMP_pressure;BME280_temperature;BME280_humidity;BME280_pressure;Samples;Min_cycle;Max_cycle;Signal;HPM_P1;HPM_P2
2023/11/22 00:03:45;;;;;;;6.38;6.07;;;-0.60;99.90;;;;;;6163999;23;20192;-88
2023/11/22 00:17:27;;;;;;;9.43;7.50;;;-0.60;99.90;;;;;;6124301;23;20185;-89
2023/11/22 00:28:27;;;;;;;;;;;;;;;;;;;;;
2023/11/22 00:39:45;;;;;;;5.22;4.82;;;-0.50;99.90;;;;;;6155831;23;20262;-87
2023/11/22 00:48:15;;;;;;;4.97;4.70;;;-0.50;99.90;;;;;;6159590;23;20212;-89
2023/11/22 00:59:16;;;;;;;12.88;4.47;;;-0.70;99.90;;;;;;6118182;23;20407;-87
2023/11/22 01:01:45;;;;;;;8.63;7.88;;;-0.60;99.90;;;;;;6167114;23;20266;-88
2023/11/22 01:04:15;;;;;;;6.97;5.97;;;-0.60;99.90;;;;;;6212557;23;20211;-83
2023/11/22 01:20:54;;;;;;;6.88;6.28;;;-0.50;99.90;;;;;;6182093;23;20189;-88
2023/11/22 01:23:21;;;;;;;6.68;6.13;;;-0.60;99.90;;;;;;6098957;23;21680;-89
2023/11/22 01:31:20;;;;;;;4.40;4.20;;;-0.70;99.90;;;;;;6146608;23;20153;-87
2023/11/22 01:34:33;;;;;;;6.72;5.85;;;-0.70;99.90;;;;;;6144639;23;20181;-88
2023/11/22 01:37:27;;;;;;;4.32;4.07;;;-0.70;99.90;;;;;;6113774;23;20232;-88
2023/11/22 01:43:23;;;;;;;8.02;7.53;;;-0.70;99.90;;;;;;6182885;23;20200;-90
2023/11/22 01:46:26;;;;;;;7.10;3.38;;;-0.70;99.90;;;;;;6139794;23;20280;-89
2023/11/22 01:51:52;;;;;;;7.90;7.43;;;-0.80;99.90;;;;;;6126958;23;21287;-88
2023/11/22 01:54:36;;;;;;;5.63;5.32;;;-0.50;99.90;;;;;;6172978;23;21309;-90
2023/11/22 01:57:08;;;;;;;11.23;9.73;;;-0.80;99.90;;;;;;6203937;23;20185;-86
2023/11/22 02:02:13;;;;;;;4.43;4.22;;;-0.80;99.90;;;;;;6183186;23;20215;-88
2023/11/22 02:07:45;;;;;;;3.78;3.47;;;-0.80;99.90;;;;;;6174524;23;20218;-83
2023/11/22 02:12:48;;;;;;;4.45;4.15;;;-0.80;99.90;;;;;;6195592;23;20180;-85
2023/11/22 02:15:18;;;;;;;6.20;5.78;;;-0.70;99.90;;;;;;6185886;23;20173;-84
2023/11/22 02:20:25;;;;;;;5.13;4.68;;;-0.80;99.90;;;;;;6183510;23;20177;-86
2023/11/22 02:23:11;;;;;;;5.05;4.75;;;-0.80;99.90;;;;;;6129067;23;20185;-86
2023/11/22 02:25:38;;;;;;;5.60;5.15;;;-0.80;99.90;;;;;;6175715;23;20208;-87
2023/11/22 02:33:35;;;;;;;6.07;4.78;;;-0.80;99.90;;;;;;6199928;23;20220;-90
2023/11/22 02:36:07;;;;;;;4.05;3.70;;;-0.80;99.90;;;;;;6198794;23;20409;-87
2023/11/22 02:39:04;;;;;;;5.07;4.68;;;-0.80;99.90;;;;;;6177972;23;20220;-87
2023/11/22 02:41:40;;;;;;;5.55;4.35;;;-0.80;99.90;;;;;;6173757;23;20254;-89
2023/11/22 02:46:52;;;;;;;6.32;5.93;;;-0.80;99.90;;;;;;6205120;22;20241;-88
2023/11/22 02:49:20;;;;;;;6.43;5.90;;;-0.80;99.90;;;;;;6171297;23;20190;-84
2023/11/22 02:51:57;;;;;;;9.02;4.43;;;-0.80;99.90;;;;;;6151341;23;20182;-87
2023/11/22 02:54:29;;;;;;;5.18;4.80;;;-0.80;99.90;;;;;;6169486;23;20177;-87
2023/11/22 02:57:13;;;;;;;3.33;2.35;;;-0.80;99.90;;;;;;6106562;23;20218;-88
2023/11/22 02:59:47;;;;;;;5.82;5.45;;;-0.80;99.90;;;;;;6086854;23;20182;-86
2023/11/22 03:02:17;;;;;;;5.30;4.85;;;-0.80;99.90;;;;;;6104625;23;20280;-87
2023/11/22 03:04:46;;;;;;;1.95;1.85;;;-0.80;99.90;;;;;;6084398;23;20238;-87
2023/11/22 03:07:29;;;;;;;5.07;4.63;;;-0.80;99.90;;;;;;6108956;23;20183;-88
2023/11/22 03:10:00;;;;;;;2.28;2.17;;;-0.80;99.90;;;;;;6090784;23;20218;-81
2023/11/22 03:12:44;;;;;;;5.00;4.60;;;-0.80;99.90;;;;;;6116835;23;20186;-88
2023/11/22 03:17:45;;;;;;;8.95;8.27;;;-0.80;99.90;;;;;;6190865;23;20201;-81
2023/11/22 03:20:12;;;;;;;3.50;3.30;;;-0.80;99.90;;;;;;6202597;23;20209;-85
2023/11/22 03:22:50;;;;;;;5.00;4.75;;;-0.80;99.90;;;;;;6195957;23;20198;-87
2023/11/22 03:25:17;;;;;;;4.13;2.75;;;-0.80;99.90;;;;;;6197743;23;20157;-85
2023/11/22 03:27:47;;;;;;;2.55;2.40;;;-0.80;99.90;;;;;;6193870;23;20203;-87
2023/11/22 03:30:29;;;;;;;4.07;3.88;;;-0.80;99.90;;;;;;6194957;23;20205;-85
2023/11/22 03:33:05;;;;;;;3.80;3.13;;;-1.00;99.90;;;;;;6169552;23;20224;-87
2023/11/22 03:35:36;;;;;;;5.35;4.95;;;-0.90;99.90;;;;;;6192342;23;20215;-85
2023/11/22 03:38:08;;;;;;;6.63;5.82;;;-0.90;99.90;;;;;;6192494;23;20232;-86
2023/11/22 03:40:37;;;;;;;6.72;6.25;;;-0.80;99.90;;;;;;6193777;23;20177;-85
2023/11/22 03:43:08;;;;;;;7.18;4.07;;;-0.80;99.90;;;;;;6193327;23;20187;-84
2023/11/22 03:45:50;;;;;;;4.60;4.30;;;-0.80;99.90;;;;;;6194193;23;20173;-83
2023/11/22 03:48:49;;;;;;;5.90;5.43;;;-1.00;99.90;;;;;;6192984;23;20384;-84
2023/11/22 03:51:18;;;;;;;2.33;2.22;;;-1.00;99.90;;;;;;6195482;23;20173;-84
2023/11/22 03:53:46;;;;;;;2.53;2.42;;;-1.00;99.90;;;;;;6198318;23;20202;-86
2023/11/22 03:56:29;;;;;;;3.65;3.45;;;-1.00;99.90;;;;;;6172118;23;20180;-87
2023/11/22 03:59:33;;;;;;;6.63;5.88;;;-1.00;99.90;;;;;;6176360;23;20173;-86
2023/11/22 04:02:14;;;;;;;3.63;3.42;;;-0.80;99.90;;;;;;6197411;23;20192;-84
2023/11/22 04:05:16;;;;;;;5.68;5.18;;;-1.00;99.90;;;;;;6198336;23;20169;-86
2023/11/22 04:07:52;;;;;;;6.18;4.15;;;-1.00;99.90;;;;;;6130528;23;20181;-85
2023/11/22 04:11:08;;;;;;;2.55;2.45;;;-1.00;99.90;;;;;;6196633;23;20208;-83
2023/11/22 04:13:54;;;;;;;6.65;4.80;;;-1.00;99.90;;;;;;6172685;23;20500;-84
2023/11/22 04:17:20;;;;;;;11.02;5.60;;;-1.00;99.90;;;;;;6182022;23;20382;-85
2023/11/22 04:20:14;;;;;;;4.88;4.57;;;-1.00;99.90;;;;;;6195065;23;20685;-86
2023/11/22 04:23:00;;;;;;;9.73;6.22;;;-1.10;99.90;;;;;;6161007;23;20253;-87
2023/11/22 04:25:29;;;;;;;2.35;2.00;;;-1.10;99.90;;;;;;6194449;23;20280;-81
2023/11/22 04:27:59;;;;;;;3.20;2.92;;;-1.10;99.90;;;;;;6170138;23;20185;-85
2023/11/22 04:30:31;;;;;;;3.65;2.83;;;-1.10;99.90;;;;;;6147617;23;20180;-85
2023/11/22 04:32:59;;;;;;;3.55;3.03;;;-1.10;99.90;;;;;;6148450;23;20356;-87
2023/11/22 04:35:36;;;;;;;8.82;4.85;;;-1.20;99.90;;;;;;6196021;23;20190;-84
2023/11/22 04:38:07;;;;;;;9.68;8.45;;;-1.20;99.90;;;;;;6191952;23;20188;-83
2023/11/22 04:40:34;;;;;;;5.38;5.07;;;-1.20;99.90;;;;;;6193694;23;20259;-84
2023/11/22 04:43:03;;;;;;;4.30;4.07;;;-1.20;99.90;;;;;;6170004;23;20180;-82
2023/11/22 04:45:34;;;;;;;3.63;3.38;;;-1.10;99.90;;;;;;6185748;23;20171;-84
2023/11/22 04:48:03;;;;;;;8.20;3.03;;;-1.10;99.90;;;;;;6212497;23;20154;-82
2023/11/22 04:50:31;;;;;;;4.25;3.95;;;-1.20;99.90;;;;;;6183619;23;20208;-86
2023/11/22 04:52:58;;;;;;;3.33;3.13;;;-1.10;99.90;;;;;;6206631;23;20240;-86
2023/11/22 04:55:28;;;;;;;2.80;2.50;;;-1.20;99.90;;;;;;6204879;23;20211;-84
2023/11/22 04:57:55;;;;;;;1.25;1.25;;;-1.20;99.90;;;;;;6203561;23;20260;-81
2023/11/22 05:00:22;;;;;;;5.43;4.85;;;-1.30;99.90;;;;;;6181860;23;20191;-85
2023/11/22 05:02:50;;;;;;;3.83;3.53;;;-1.30;99.90;;;;;;6200830;23;20181;-86
2023/11/22 05:05:20;;;;;;;9.38;3.78;;;-1.30;99.90;;;;;;6196809;23;20177;-87
2023/11/22 05:07:48;;;;;;;9.77;3.75;;;-1.10;99.90;;;;;;6145503;23;20181;-90
2023/11/22 05:13:00;;;;;;;10.35;4.32;;;-1.20;99.90;;;;;;6166715;23;20215;-84
2023/11/22 05:15:28;;;;;;;2.47;2.38;;;-1.20;99.90;;;;;;6209074;23;20185;-84
2023/11/22 05:17:54;;;;;;;3.67;3.38;;;-1.20;99.90;;;;;;6178009;23;20188;-87
2023/11/22 05:20:24;;;;;;;4.45;4.10;;;-1.20;99.90;;;;;;6192254;23;20506;31
2023/11/22 05:22:51;;;;;;;4.82;4.40;;;-1.30;99.90;;;;;;6178962;23;20190;-83
2023/11/22 05:25:20;;;;;;;2.80;2.15;;;-1.30;99.90;;;;;;6166676;23;20196;-87
2023/11/22 05:27:50;;;;;;;2.20;2.10;;;-1.20;99.90;;;;;;6188560;23;20157;-86
2023/11/22 05:32:59;;;;;;;3.20;2.90;;;-1.10;99.90;;;;;;6200950;23;20201;-86
2023/11/22 05:35:27;;;;;;;2.65;2.33;;;-1.20;99.90;;;;;;6207196;23;20196;-86
2023/11/22 05:37:55;;;;;;;4.28;3.97;;;-1.10;99.90;;;;;;6201456;23;20200;-81
2023/11/22 05:40:22;;;;;;;3.33;3.00;;;-1.10;99.90;;;;;;6212041;23;20173;-85
2023/11/22 05:42:52;;;;;;;5.03;4.60;;;-1.10;99.90;;;;;;6211531;23;20168;-87
2023/11/22 05:45:20;;;;;;;1.02;1.02;;;-1.10;99.90;;;;;;6210399;23;20225;-85
2023/11/22 05:47:48;;;;;;;3.67;3.47;;;-1.10;99.90;;;;;;6210699;23;20176;-86
2023/11/22 05:50:17;;;;;;;7.03;4.30;;;-1.20;99.90;;;;;;6203781;23;20204;-86
2023/11/22 05:52:44;;;;;;;2.83;2.72;;;-1.10;99.90;;;;;;6141220;23;20245;-84
2023/11/22 05:55:13;;;;;;;3.00;1.98;;;-1.10;99.90;;;;;;6126418;23;20197;-83
2023/11/22 05:57:41;;;;;;;4.85;4.38;;;-1.20;99.90;;;;;;6203712;23;20162;-87
2023/11/22 06:00:10;;;;;;;2.40;2.25;;;-1.10;99.90;;;;;;6199410;23;20209;-87
2023/11/22 06:02:39;;;;;;;1.33;1.33;;;-1.10;99.90;;;;;;6175653;23;20189;-86
2023/11/22 06:05:08;;;;;;;3.42;2.58;;;-1.10;99.90;;;;;;6153427;23;20184;-89
2023/11/22 06:07:35;;;;;;;4.82;4.38;;;-1.10;99.90;;;;;;6179007;23;20306;-84
2023/11/22 06:10:03;;;;;;;1.75;1.65;;;-1.00;99.90;;;;;;6199620;23;20193;-86
2023/11/22 06:12:31;;;;;;;3.60;3.40;;;-1.10;99.90;;;;;;6208478;23;20176;-84
2023/11/22 06:14:59;;;;;;;4.20;2.58;;;-1.10;99.90;;;;;;6195577;23;20228;-87
2023/11/22 06:17:30;;;;;;;2.38;2.28;;;-1.10;99.90;;;;;;6194840;23;20193;-86
2023/11/22 06:19:57;;;;;;;1.05;1.05;;;-1.10;99.90;;;;;;6174580;23;20184;-86
2023/11/22 06:22:25;;;;;;;1.35;1.35;;;-1.10;99.90;;;;;;6168938;23;20252;-85
2023/11/22 06:24:54;;;;;;;2.55;1.13;;;-1.10;99.90;;;;;;6189200;23;20275;-88
2023/11/22 06:27:21;;;;;;;2.42;2.33;;;-1.10;99.90;;;;;;6201175;23;20433;-83
2023/11/22 06:29:52;;;;;;;3.33;3.05;;;-1.20;99.90;;;;;;6201509;23;20193;-87
2023/11/22 06:32:23;;;;;;;1.88;1.80;;;-1.20;99.90;;;;;;6196350;23;20309;-82
2023/11/22 06:34:55;;;;;;;4.97;4.43;;;-1.20;99.90;;;;;;6172071;23;20165;-86
2023/11/22 06:37:21;;;;;;;3.72;3.38;;;-1.20;99.90;;;;;;6195650;23;20183;-85
2023/11/22 06:40:00;;;;;;;1.85;1.85;;;-1.10;99.90;;;;;;6172382;23;20188;-86
2023/11/22 06:43:17;;;;;;;5.28;4.93;;;-1.10;99.90;;;;;;6158051;23;20218;-85
2023/11/22 06:46:18;;;;;;;3.53;3.33;;;-1.10;99.90;;;;;;6196373;23;20232;-87
2023/11/22 06:48:51;;;;;;;2.13;2.03;;;-1.10;99.90;;;;;;6154103;23;20204;-86
2023/11/22 06:51:28;;;;;;;2.33;2.22;;;-1.00;99.90;;;;;;6171759;23;20197;-87
2023/11/22 06:54:41;;;;;;;1.48;1.48;;;-1.10;99.90;;;;;;6147967;23;20395;-86
2023/11/22 06:57:39;;;;;;;3.95;3.60;;;-1.10;99.90;;;;;;6166139;23;20336;-87
2023/11/22 07:00:09;;;;;;;2.08;1.98;;;-1.10;99.90;;;;;;6175617;23;20209;-84
2023/11/22 07:02:36;;;;;;;5.15;4.72;;;-1.00;99.90;;;;;;6165053;23;20638;-82
2023/11/22 07:05:10;;;;;;;4.78;2.33;;;-1.10;99.90;;;;;;6141731;23;20194;-83
2023/11/22 07:07:39;;;;;;;2.78;2.60;;;-1.00;99.90;;;;;;6164390;23;20228;-87
2023/11/22 07:10:07;;;;;;;3.25;3.10;;;-1.10;99.90;;;;;;6145712;23;20193;-86
2023/11/22 07:12:37;;;;;;;3.25;2.97;;;-1.10;99.90;;;;;;6180638;23;20496;-85
2023/11/22 07:15:05;;;;;;;3.47;3.22;;;-1.10;99.90;;;;;;6149620;23;20231;-87
2023/11/22 07:17:36;;;;;;;3.00;2.90;;;-1.00;99.90;;;;;;6182655;23;20281;-87
2023/11/22 07:20:08;;;;;;;3.25;3.00;;;-1.00;99.90;;;;;;6173419;23;20209;-87
2023/11/22 07:22:37;;;;;;;5.13;3.13;;;-1.00;99.90;;;;;;6195790;23;20161;-84
2023/11/22 07:25:07;;;;;;;1.65;1.55;;;-1.10;99.90;;;;;;6199070;23;20196;-85
2023/11/22 07:27:34;;;;;;;2.33;2.22;;;-1.10;99.90;;;;;;6201338;23;20197;-85
2023/11/22 07:32:40;;;;;;;1.92;1.83;;;-1.00;99.90;;;;;;6171950;23;20199;-87
2023/11/22 07:35:08;;;;;;;1.75;1.52;;;-1.00;99.90;;;;;;6195864;23;20204;-86
2023/11/22 07:37:36;;;;;;;0.80;0.80;;;-1.00;99.90;;;;;;6201776;23;20226;-84
2023/11/22 07:43:07;;;;;;;3.35;3.15;;;-1.00;99.90;;;;;;6238008;23;20161;-86
2023/11/22 07:45:37;;;;;;;2.33;2.13;;;-0.90;99.90;;;;;;6212015;22;20206;-85
2023/11/22 07:50:48;;;;;;;2.25;2.17;;;-0.90;99.90;;;;;;6188842;23;20227;-84
2023/11/22 07:53:21;;;;;;;0.80;0.80;;;-0.90;99.90;;;;;;6214796;23;20210;-85
2023/11/22 07:55:48;;;;;;;2.70;2.38;;;-0.90;99.90;;;;;;6226675;23;20176;-88
2023/11/22 07:58:17;;;;;;;2.45;2.35;;;-0.90;99.90;;;;;;6226891;23;20207;-85
2023/11/22 08:00:47;;;;;;;2.63;2.50;;;-1.00;99.90;;;;;;6225856;23;20554;-85
2023/11/22 08:03:23;;;;;;;2.15;2.05;;;-1.00;99.90;;;;;;6231890;23;20167;-85
2023/11/22 08:05:55;;;;;;;0.82;0.82;;;-0.80;99.90;;;;;;6192839;23;20219;-86
2023/11/22 08:08:23;;;;;;;2.42;2.33;;;-0.80;99.90;;;;;;6211866;23;20202;-87
2023/11/22 08:10:54;;;;;;;1.20;1.20;;;-0.80;99.90;;;;;;6239146;23;20207;-82
2023/11/22 08:16:04;;;;;;;4.30;2.67;;;-0.70;99.90;;;;;;6196613;23;20215;-82
2023/11/22 08:18:32;;;;;;;1.00;1.00;;;-0.70;99.90;;;;;;6200951;23;20192;-85
2023/11/22 08:21:00;;;;;;;5.80;5.50;;;-0.80;99.90;;;;;;6179623;23;20209;-85
2023/11/22 08:26:04;;;;;;;5.85;5.38;;;-0.80;99.90;;;;;;6180151;23;20232;-82
2023/11/22 08:28:32;;;;;;;5.60;5.28;;;-0.90;99.90;;;;;;6151583;23;20178;-87
2023/11/22 08:31:00;;;;;;;2.95;2.80;;;-1.00;99.90;;;;;;6171968;23;20221;-88
2023/11/22 08:33:27;;;;;;;4.00;3.60;;;-1.00;99.90;;;;;;6165068;23;20209;-89
2023/11/22 08:35:59;;;;;;;3.60;3.30;;;-1.10;99.90;;;;;;6200895;23;20157;-83
2023/11/22 08:38:26;;;;;;;4.13;2.05;;;-1.20;99.90;;;;;;6200218;23;20480;-86
2023/11/22 08:40:55;;;;;;;1.13;1.13;;;-1.30;99.90;;;;;;6201732;23;20216;-86
2023/11/22 08:43:25;;;;;;;3.55;3.33;;;-1.50;99.90;;;;;;6203164;23;20201;-87
2023/11/22 08:48:33;;;;;;;2.80;2.70;;;-1.50;99.90;;;;;;6195801;23;20346;-86
2023/11/22 08:53:45;;;;;;;2.70;2.60;;;-1.10;99.90;;;;;;6198207;23;20532;-88
2023/11/22 08:56:13;;;;;;;3.50;3.30;;;-1.10;99.90;;;;;;6198568;22;21265;-86
2023/11/22 08:58:41;;;;;;;2.53;2.42;;;-1.00;99.90;;;;;;6105327;23;20224;-86
2023/11/22 09:01:10;;;;;;;4.28;4.05;;;-0.80;99.90;;;;;;6140493;23;20209;-85
2023/11/22 09:03:46;;;;;;;2.88;2.72;;;-0.80;99.90;;;;;;6151998;23;20208;-84
2023/11/22 09:06:17;;;;;;;2.70;2.55;;;-0.70;99.90;;;;;;6205452;23;20172;-86
2023/11/22 09:11:28;;;;;;;3.13;2.88;;;-0.50;99.90;;;;;;6141978;23;20187;-85
2023/11/22 09:16:38;;;;;;;6.57;5.78;;;-0.10;99.90;;;;;;6162689;23;20242;-88
2023/11/22 09:19:07;;;;;;;2.72;2.63;;;-0.20;99.90;;;;;;6139554;23;20208;-87
2023/11/22 09:24:19;;;;;;;2.63;2.50;;;-0.40;99.90;;;;;;6177354;23;20266;-86
2023/11/22 09:26:48;;;;;;;4.18;3.92;;;-0.40;99.90;;;;;;6164616;23;20212;-87
2023/11/22 09:34:31;;;;;;;5.90;5.50;;;0.30;99.90;;;;;;6140740;23;20193;-81
2023/11/22 09:37:01;;;;;;;2.67;2.47;;;0.10;99.90;;;;;;6162880;23;20197;-84
2023/11/22 09:42:05;;;;;;;5.88;3.95;;;0.00;99.90;;;;;;6215191;23;20203;-85
2023/11/22 09:44:33;;;;;;;3.35;3.05;;;0.10;99.90;;;;;;6260850;22;20168;-84
2023/11/22 09:47:04;;;;;;;2.60;2.50;;;0.00;99.90;;;;;;6211042;23;20221;-84
2023/11/22 09:49:32;;;;;;;2.60;2.50;;;-0.20;99.90;;;;;;6238827;22;20230;-88
2023/11/22 09:54:40;;;;;;;2.90;2.70;;;-0.30;99.90;;;;;;6171032;23;20196;-87
2023/11/22 09:59:52;;;;;;;2.97;2.88;;;-0.50;99.90;;;;;;6185166;23;20192;-87
2023/11/22 10:02:26;;;;;;;5.57;5.17;;;-0.50;99.90;;;;;;6059521;23;1636114;-85
2023/11/22 10:07:38;;;;;;;1.42;1.38;;;-0.60;99.90;;;;;;6177585;23;20193;-83
2023/11/22 10:10:06;;;;;;;6.05;5.18;;;-0.40;99.90;;;;;;6149979;23;21631;-88
2023/11/22 10:15:18;;;;;;;3.20;3.00;;;-0.40;99.90;;;;;;6168413;23;20213;-86
2023/11/22 10:18:00;;;;;;;2.40;2.30;;;-0.40;99.90;;;;;;6170407;23;20169;-89
2023/11/22 10:20:39;;;;;;;2.13;2.00;;;-0.40;99.90;;;;;;6180847;23;20204;-83
2023/11/22 10:25:36;;;;;;;2.28;2.17;;;-0.20;99.90;;;;;;6156019;23;21469;-82
2023/11/22 10:28:07;;;;;;;2.10;2.00;;;-0.20;99.90;;;;;;6182502;23;20149;-86
2023/11/22 10:30:34;;;;;;;3.60;3.50;;;0.30;99.90;;;;;;6206076;23;20223;-80
2023/11/22 10:33:03;;;;;;;3.20;3.10;;;0.50;99.90;;;;;;6141250;23;20209;-84
2023/11/22 10:35:31;;;;;;;5.85;5.35;;;0.40;99.90;;;;;;6181614;23;20248;-87
2023/11/22 10:38:06;;;;;;;3.47;3.17;;;0.50;99.90;;;;;;6205872;23;20173;-84
2023/11/22 10:40:33;;;;;;;4.55;4.18;;;0.30;99.90;;;;;;6204775;23;20197;-85
2023/11/22 10:43:02;;;;;;;1.75;1.75;;;0.20;99.90;;;;;;6198692;23;20207;-85
2023/11/22 10:45:33;;;;;;;2.55;2.45;;;0.10;99.90;;;;;;6201898;23;20204;-87
2023/11/22 10:48:02;;;;;;;3.03;2.85;;;-0.10;99.90;;;;;;6201420;23;20690;-88
2023/11/22 10:50:29;;;;;;;4.15;3.95;;;0.00;99.90;;;;;;6201702;23;20386;-85
2023/11/22 10:53:06;;;;;;;3.15;2.95;;;-0.20;99.90;;;;;;6177165;23;20228;-85
2023/11/22 10:55:47;;;;;;;4.30;4.10;;;-0.20;99.90;;;;;;6202188;23;20221;-86
2023/11/22 10:58:21;;;;;;;2.03;1.92;;;-0.20;99.90;;;;;;6145861;23;20201;-85
2023/11/22 11:00:50;;;;;;;2.53;2.42;;;-0.10;99.90;;;;;;6127884;23;20266;-87
2023/11/22 11:03:19;;;;;;;1.83;1.77;;;-0.10;99.90;;;;;;6144235;23;20202;-85
2023/11/22 11:06:16;;;;;;;3.53;3.30;;;0.10;99.90;;;;;;6145276;23;20181;-86
2023/11/22 11:08:45;;;;;;;2.85;2.65;;;-0.20;99.90;;;;;;6141973;23;20174;-88
2023/11/22 11:11:17;;;;;;;0.85;0.85;;;-0.10;99.90;;;;;;6144647;23;20194;-89
2023/11/22 11:13:48;;;;;;;1.73;1.65;;;-0.30;99.90;;;;;;6150828;23;20339;-82
2023/11/22 11:16:16;;;;;;;7.13;5.15;;;-0.30;99.90;;;;;;6172330;23;20232;-84
2023/11/22 11:18:46;;;;;;;1.02;1.02;;;-0.50;99.90;;;;;;6153964;23;20269;-88
2023/11/22 11:21:16;;;;;;;3.67;3.53;;;-0.40;99.90;;;;;;6145465;23;20201;-87
2023/11/22 11:23:44;;;;;;;1.67;1.58;;;-0.30;99.90;;;;;;6107563;23;20264;-86
2023/11/22 11:29:03;;;;;;;1.38;1.38;;;-0.60;99.90;;;;;;6162807;23;20208;-87
2023/11/22 11:31:35;;;;;;;2.35;2.25;;;-0.70;99.90;;;;;;6204066;23;20195;-83
2023/11/22 11:34:06;;;;;;;3.72;3.53;;;-0.70;99.90;;;;;;6204548;23;20153;-88
2023/11/22 11:36:37;;;;;;;1.05;1.00;;;-0.80;99.90;;;;;;6108589;23;20213;-85
2023/11/22 11:39:14;;;;;;;4.07;3.70;;;-0.80;99.90;;;;;;6143230;23;20178;-85
2023/11/22 11:41:43;;;;;;;2.22;2.13;;;-0.80;99.90;;;;;;6119453;23;20209;-86
2023/11/22 11:44:12;;;;;;;3.03;2.83;;;-0.50;99.90;;;;;;6189094;23;20230;-88
2023/11/22 11:46:39;;;;;;;2.90;2.70;;;-0.60;99.90;;;;;;6207645;23;20181;-89
2023/11/22 11:49:12;;;;;;;3.25;3.05;;;-0.60;99.90;;;;;;6203865;23;20225;-87
2023/11/22 11:51:40;;;;;;;2.75;2.65;;;-0.40;99.90;;;;;;6206050;23;20227;-85
2023/11/22 11:54:09;;;;;;;1.00;1.00;;;-0.40;99.90;;;;;;6208198;23;20200;-87
2023/11/22 11:56:38;;;;;;;1.42;1.42;;;-0.20;99.90;;;;;;6185072;23;20203;-86
2023/11/22 11:59:06;;;;;;;2.55;2.45;;;0.10;99.90;;;;;;6178422;23;20184;-85
2023/11/22 12:01:36;;;;;;;2.17;1.98;;;0.10;99.90;;;;;;6207138;23;20189;-86
2023/11/22 12:04:05;;;;;;;1.63;1.63;;;0.20;99.90;;;;;;6159084;23;20439;-84
2023/11/22 12:06:38;;;;;;;2.50;2.30;;;-0.10;99.90;;;;;;6162397;23;20448;-85
2023/11/22 12:09:06;;;;;;;3.13;2.92;;;-0.10;99.90;;;;;;6179758;23;20169;-87
2023/11/22 12:11:34;;;;;;;3.05;2.95;;;-0.30;99.90;;;;;;6178066;23;20304;-88
2023/11/22 12:14:04;;;;;;;2.78;2.67;;;-0.30;99.90;;;;;;6204514;23;20177;-87
2023/11/22 12:19:05;;;;;;;4.38;3.95;;;-0.50;99.90;;;;;;6183407;23;20231;-85
2023/11/22 12:21:38;;;;;;;3.88;3.63;;;-0.60;99.90;;;;;;6182875;23;20170;-81
2023/11/22 12:24:07;;;;;;;2.90;2.75;;;-0.70;99.90;;;;;;6182039;23;20177;-85
2023/11/22 12:26:34;;;;;;;2.72;2.63;;;-0.70;99.90;;;;;;6193805;23;20213;-82
2023/11/22 12:29:01;;;;;;;2.33;2.22;;;-0.70;99.90;;;;;;6199595;23;20165;-84
2023/11/22 12:31:35;;;;;;;5.38;3.78;;;-0.70;99.90;;;;;;6176352;23;20237;-86
2023/11/22 12:34:05;;;;;;;4.47;4.18;;;-0.70;99.90;;;;;;6176888;23;20176;-86
2023/11/22 12:36:35;;;;;;;3.80;3.50;;;-0.60;99.90;;;;;;6179534;23;20173;-88
2023/11/22 12:41:45;;;;;;;5.15;2.15;;;-0.80;99.90;;;;;;6185898;23;20201;-81
2023/11/22 12:44:25;;;;;;;1.42;1.40;;;-0.80;99.90;;;;;;6202637;23;20169;-85
2023/11/22 12:47:01;;;;;;;1.33;1.33;;;-0.90;99.90;;;;;;6199644;23;20232;-87
2023/11/22 12:49:28;;;;;;;2.33;2.22;;;-0.90;99.90;;;;;;6199273;23;20172;-87
2023/11/22 12:51:59;;;;;;;2.67;2.58;;;-0.90;99.90;;;;;;6175750;23;20200;-86
2023/11/22 12:54:27;;;;;;;2.92;2.72;;;-0.90;99.90;;;;;;6173624;23;20512;-84
2023/11/22 12:56:58;;;;;;;2.10;2.00;;;-1.20;99.90;;;;;;6198742;23;20244;-90
2023/11/22 12:59:31;;;;;;;2.42;2.22;;;-1.00;99.90;;;;;;6199995;23;20257;-89
2023/11/22 13:02:00;;;;;;;1.70;1.60;;;-1.00;99.90;;;;;;6177238;23;20189;-87
2023/11/22 13:04:31;;;;;;;1.90;1.80;;;-0.90;99.90;;;;;;6177598;23;20176;-86
2023/11/22 13:07:01;;;;;;;3.70;3.50;;;-1.10;99.90;;;;;;6154139;23;20192;-89
2023/11/22 13:09:32;;;;;;;1.90;1.80;;;-0.80;99.90;;;;;;6188386;23;20204;-83
2023/11/22 13:14:40;;;;;;;1.67;1.67;;;-0.90;99.90;;;;;;6157537;23;20212;-84
2023/11/22 13:17:23;;;;;;;1.80;1.75;;;-1.00;99.90;;;;;;6187725;23;20196;-86
2023/11/22 13:19:50;;;;;;;2.92;2.15;;;-1.00;99.90;;;;;;6206119;23;20265;-81
2023/11/22 13:22:19;;;;;;;3.08;2.88;;;-1.00;99.90;;;;;;6203731;23;20208;-84
2023/11/22 13:24:46;;;;;;;2.00;1.92;;;-1.00;99.90;;;;;;6149907;23;20224;-86
2023/11/22 13:27:17;;;;;;;1.33;1.33;;;-1.00;99.90;;;;;;6141082;23;20174;-82
2023/11/22 13:29:44;;;;;;;1.60;1.50;;;-1.00;99.90;;;;;;6139597;23;20190;-86
2023/11/22 13:32:24;;;;;;;1.25;1.25;;;-1.10;99.90;;;;;;6141869;23;20214;-87
2023/11/22 13:34:55;;;;;;;3.17;2.88;;;-1.10;99.90;;;;;;6143306;23;20166;-85
2023/11/22 13:37:23;;;;;;;1.10;1.10;;;-1.00;99.90;;;;;;6144662;23;20669;-84
2023/11/22 13:39:50;;;;;;;4.63;2.45;;;-1.10;99.90;;;;;;6145548;23;20194;-84
2023/11/22 13:42:17;;;;;;;3.15;2.95;;;-1.10;99.90;;;;;;6145467;23;20220;-83
2023/11/22 13:50:09;;;;;;;1.67;1.58;;;-1.00;99.90;;;;;;6160915;23;20224;-90
2023/11/22 13:52:37;;;;;;;4.80;3.40;;;-1.10;99.90;;;;;;6154388;23;20189;-85
2023/11/22 13:55:10;;;;;;;1.95;1.85;;;-1.10;99.90;;;;;;6205880;23;20208;-83
2023/11/22 13:57:39;;;;;;;2.10;2.00;;;-1.10;99.90;;;;;;6208564;23;20344;-84
2023/11/22 14:00:18;;;;;;;5.20;3.70;;;-1.20;99.90;;;;;;6186703;23;20208;-85
2023/11/22 14:05:33;;;;;;;1.13;1.13;;;-1.20;99.90;;;;;;6172433;23;20209;-84
2023/11/22 14:08:01;;;;;;;1.35;1.35;;;-1.30;99.90;;;;;;6168628;23;20182;-84
2023/11/22 14:10:30;;;;;;;2.17;2.08;;;-1.20;99.90;;;;;;6142076;23;20181;-88
2023/11/22 14:13:00;;;;;;;1.98;1.90;;;-1.20;99.90;;;;;;6172749;23;20280;-86
2023/11/22 14:15:28;;;;;;;2.15;2.05;;;-1.20;99.90;;;;;;6140779;23;20197;-88
2023/11/22 14:18:17;;;;;;;1.20;1.20;;;-1.20;99.90;;;;;;6169067;23;20232;-84
2023/11/22 14:20:45;;;;;;;0.80;0.80;;;-1.30;99.90;;;;;;6143020;23;20180;-85
2023/11/22 14:23:12;;;;;;;1.75;1.45;;;-1.30;99.90;;;;;;6162325;23;20181;-83
2023/11/22 14:25:50;;;;;;;4.32;2.58;;;-1.20;99.90;;;;;;6167443;23;20204;-86
2023/11/22 14:28:18;;;;;;;1.23;1.13;;;-1.10;99.90;;;;;;6146677;23;20168;-85
2023/11/22 14:30:54;;;;;;;4.07;3.30;;;-1.10;99.90;;;;;;6181682;23;20150;-84
2023/11/22 14:33:21;;;;;;;2.10;2.00;;;-1.20;99.90;;;;;;6175573;23;20170;-84
2023/11/22 14:35:50;;;;;;;2.03;1.95;;;-1.30;99.90;;;;;;6140469;23;20188;-86
2023/11/22 14:38:18;;;;;;;2.08;1.98;;;-1.30;99.90;;;;;;6166479;23;20381;-85
2023/11/22 14:40:52;;;;;;;1.23;1.23;;;-1.50;99.90;;;;;;6171808;23;20197;-87
2023/11/22 14:46:05;;;;;;;3.08;2.88;;;-1.60;99.90;;;;;;6190286;23;20204;-86
2023/11/22 14:48:37;;;;;;;2.13;1.83;;;-1.70;99.90;;;;;;6201652;23;20161;-86
2023/11/22 14:51:11;;;;;;;2.67;2.58;;;-1.50;99.90;;;;;;6150002;23;20169;-85
2023/11/22 14:53:41;;;;;;;3.33;3.13;;;-1.60;99.90;;;;;;6172597;23;20170;-87
2023/11/22 14:56:10;;;;;;;1.75;1.70;;;-1.60;99.90;;;;;;6171925;23;20242;-85
2023/11/22 14:58:39;;;;;;;2.88;2.78;;;-1.70;99.90;;;;;;6196884;23;20192;-86
2023/11/22 15:01:08;;;;;;;4.68;4.30;;;-1.70;99.90;;;;;;6197845;23;20188;-86
2023/11/22 15:03:38;;;;;;;1.90;1.85;;;-1.70;99.90;;;;;;6170095;23;20189;-86
2023/11/22 15:06:20;;;;;;;1.85;1.75;;;-1.70;99.90;;;;;;6203325;23;20191;-85
2023/11/22 15:08:48;;;;;;;4.53;4.18;;;-1.70;99.90;;;;;;6201440;23;20284;-85
2023/11/22 15:11:21;;;;;;;6.00;5.57;;;-1.70;99.90;;;;;;6199366;23;20200;-83
2023/11/22 15:13:48;;;;;;;1.15;1.15;;;-1.80;99.90;;;;;;6173811;23;20197;-88
2023/11/22 15:16:18;;;;;;;1.85;1.75;;;-1.90;99.90;;;;;;6200996;23;20177;-84
2023/11/22 15:18:48;;;;;;;2.05;1.80;;;-2.10;99.90;;;;;;6200469;23;20332;-87
2023/11/22 15:21:19;;;;;;;1.02;1.02;;;-2.20;99.90;;;;;;6172124;23;20508;-88
2023/11/22 15:23:47;;;;;;;1.65;1.65;;;-2.20;99.90;;;;;;6202747;23;20168;-81
2023/11/22 15:26:14;;;;;;;4.78;2.80;;;-2.00;99.90;;;;;;6203067;23;20180;-85
2023/11/22 15:28:46;;;;;;;2.17;1.90;;;-2.00;99.90;;;;;;6199205;23;20184;-84
2023/11/22 15:31:22;;;;;;;4.63;4.35;;;-2.20;99.90;;;;;;6179878;23;20245;-81
2023/11/22 15:33:53;;;;;;;3.10;3.00;;;-2.20;99.90;;;;;;6205831;23;20175;-84
2023/11/22 15:36:25;;;;;;;2.47;2.38;;;-2.20;99.90;;;;;;6178894;23;20165;-84
2023/11/22 15:38:53;;;;;;;2.45;2.25;;;-2.00;99.90;;;;;;6202536;23;20226;-86
2023/11/22 15:41:21;;;;;;;3.40;3.10;;;-1.90;99.90;;;;;;6172032;23;20255;-85
2023/11/22 15:43:55;;;;;;;1.63;1.60;;;-1.90;99.90;;;;;;6196578;23;20466;-87
2023/11/22 15:46:26;;;;;;;2.22;2.13;;;-2.00;99.90;;;;;;6195180;23;20229;-86
2023/11/22 15:48:54;;;;;;;6.10;5.75;;;-2.00;99.90;;;;;;6200548;23;20173;-87
2023/11/22 15:51:23;;;;;;;1.75;1.65;;;-2.10;99.90;;;;;;6194993;23;20212;-84
2023/11/22 15:53:50;;;;;;;2.28;2.17;;;-2.10;99.90;;;;;;6200858;23;20211;-84
2023/11/22 15:56:18;;;;;;;1.92;1.83;;;-2.10;99.90;;;;;;6203228;23;20165;-86
2023/11/22 15:58:50;;;;;;;3.30;3.08;;;-2.10;99.90;;;;;;6202898;23;20169;-84
2023/11/22 16:01:17;;;;;;;1.60;1.55;;;-2.10;99.90;;;;;;6199698;23;20372;-84